createdAt,value
2023-05-17T00:01:48.543Z,96087.00
2023-05-17T00:04:34.210Z,96090.00
2023-05-17T00:07:20.352Z,96098.00
2023-05-17T00:10:08.990Z,96100.00
2023-05-17T00:12:54.853Z,96102.00
2023-05-17T00:15:40.712Z,96101.00
2023-05-17T00:18:26.620Z,96095.00
2023-05-17T00:21:12.591Z,96096.00
2023-05-17T00:23:59.573Z,96101.00
2023-05-17T00:26:45.399Z,96095.00
2023-05-17T00:29:31.199Z,96100.00
2023-05-17T00:32:16.997Z,96107.00
2023-05-17T00:35:02.837Z,96112.00
2023-05-17T00:37:48.615Z,96110.00
2023-05-17T00:40:34.246Z,96115.00
2023-05-17T00:43:20.454Z,96113.00
2023-05-17T00:46:06.225Z,96115.00
2023-05-17T00:48:51.699Z,96109.00
2023-05-17T00:51:38.684Z,96129.00
2023-05-17T00:54:24.650Z,96123.00
2023-05-17T00:57:10.661Z,96125.00
2023-05-17T00:59:56.894Z,96128.00
2023-05-17T01:02:44.886Z,96116.00
2023-05-17T01:05:31.119Z,96126.00
2023-05-17T01:08:17.375Z,96133.00
2023-05-17T01:11:09.019Z,96135.00
2023-05-17T01:14:13.840Z,96139.00
2023-05-17T01:17:07.513Z,96140.00
2023-05-17T01:20:23.421Z,96130.00
2023-05-17T01:23:32.556Z,96144.00
2023-05-17T01:26:39.240Z,96152.00
2023-05-17T01:29:29.048Z,96154.00
2023-05-17T01:32:16.269Z,96141.00
2023-05-17T01:35:06.348Z,96150.00
2023-05-17T01:37:54.700Z,96151.00
2023-05-17T01:40:52.731Z,96150.00
2023-05-17T01:44:28.345Z,96159.00
2023-05-17T01:47:54.276Z,96154.00
2023-05-17T01:50:41.980Z,96153.00
2023-05-17T01:53:40.171Z,96159.00
2023-05-17T01:56:34.688Z,96155.00
2023-05-17T01:59:25.629Z,96157.00
2023-05-17T02:02:14.058Z,96154.00
2023-05-17T02:04:59.901Z,96146.00
2023-05-17T02:07:45.655Z,96154.00
2023-05-17T02:10:31.433Z,96154.00
2023-05-17T02:13:16.958Z,96157.00
2023-05-17T02:16:04.568Z,96149.00
2023-05-17T02:18:51.754Z,96162.00
2023-05-17T02:21:37.486Z,96160.00
2023-05-17T02:24:23.160Z,96167.00
2023-05-17T02:27:09.084Z,96161.00
2023-05-17T02:29:54.585Z,96156.00
2023-05-17T02:32:40.872Z,96156.00
2023-05-17T02:35:27.060Z,96158.00
2023-05-17T02:38:13.195Z,96153.00
2023-05-17T02:41:00.561Z,96146.00
2023-05-17T02:43:46.405Z,96151.00
2023-05-17T02:46:32.313Z,96151.00
2023-05-17T02:49:18.298Z,96157.00
2023-05-17T02:52:04.408Z,96160.00
2023-05-17T02:54:51.731Z,96157.00
2023-05-17T02:57:38.408Z,96157.00
2023-05-17T03:00:24.903Z,96164.00
2023-05-17T03:03:11.456Z,96159.00
2023-05-17T03:06:02.325Z,96158.00
2023-05-17T03:08:48.517Z,96168.00
2023-05-17T03:11:35.902Z,96173.00
2023-05-17T03:14:24.908Z,96170.00
2023-05-17T03:17:10.828Z,96172.00
2023-05-17T03:19:57.594Z,96174.00
2023-05-17T03:22:43.243Z,96172.00
2023-05-17T03:25:28.906Z,96181.00
2023-05-17T03:28:15.069Z,96185.00
2023-05-17T03:31:01.475Z,96183.00
2023-05-17T03:33:50.571Z,96184.00
2023-05-17T03:36:40.518Z,96192.00
2023-05-17T03:39:26.272Z,96189.00
2023-05-17T03:42:12.252Z,96198.00
2023-05-17T03:44:58.161Z,96201.00
2023-05-17T03:47:44.496Z,96193.00
2023-05-17T03:50:32.829Z,96191.00
2023-05-17T03:53:19.234Z,96200.00
2023-05-17T03:56:06.711Z,96195.00
2023-05-17T03:58:52.604Z,96209.00
2023-05-17T04:01:44.207Z,96211.00
2023-05-17T04:04:30.091Z,96217.00
2023-05-17T04:07:16.768Z,96229.00
2023-05-17T04:10:03.239Z,96222.00
2023-05-17T04:12:50.337Z,96220.00
2023-05-17T04:15:37.365Z,96219.00
2023-05-17T04:18:24.333Z,96229.00
2023-05-17T04:21:10.528Z,96234.00
2023-05-17T04:23:58.151Z,96231.00
2023-05-17T04:26:45.218Z,96243.00
2023-05-17T04:29:31.476Z,96239.00
2023-05-17T04:32:19.773Z,96248.00
2023-05-17T04:35:07.006Z,96237.00
2023-05-17T04:37:56.109Z,96241.00
2023-05-17T04:40:44.913Z,96248.00
2023-05-17T04:43:39.644Z,96253.00
2023-05-17T04:46:35.344Z,96250.00
2023-05-17T04:49:21.888Z,96249.00
2023-05-17T04:52:08.041Z,96257.00
2023-05-17T04:54:54.952Z,96263.00
2023-05-17T04:57:42.183Z,96260.00
2023-05-17T05:00:30.374Z,96258.00
2023-05-17T05:03:23.536Z,96268.00
2023-05-17T05:06:10.462Z,96265.00
2023-05-17T05:08:56.290Z,96275.00
2023-05-17T05:11:42.521Z,96272.00
2023-05-17T05:14:28.971Z,96274.00
2023-05-17T05:17:15.494Z,96278.00
2023-05-17T05:20:01.522Z,96283.00
2023-05-17T05:22:48.372Z,96290.00
2023-05-17T05:25:38.343Z,96281.00
2023-05-17T05:28:25.081Z,96287.00
2023-05-17T05:31:10.901Z,96286.00
2023-05-17T05:34:02.614Z,96294.00
2023-05-17T05:36:49.323Z,96296.00
2023-05-17T05:39:35.563Z,96298.00
2023-05-17T05:42:22.117Z,96298.00
2023-05-17T05:45:10.248Z,96298.00
2023-05-17T05:47:56.485Z,96304.00
2023-05-17T05:50:45.204Z,96303.00
2023-05-17T05:53:33.319Z,96311.00
2023-05-17T05:56:19.451Z,96311.00
2023-05-17T05:59:06.146Z,96301.00
2023-05-17T06:01:51.992Z,96313.00
2023-05-17T06:04:45.141Z,96309.00
2023-05-17T06:07:31.924Z,96327.00
2023-05-17T06:10:17.994Z,96318.00
2023-05-17T06:13:04.264Z,96322.00
2023-05-17T06:15:49.747Z,96327.00
2023-05-17T06:18:35.723Z,96332.00
2023-05-17T06:21:21.529Z,96331.00
2023-05-17T06:24:07.724Z,96334.00
2023-05-17T06:26:53.448Z,96330.00
2023-05-17T06:29:39.581Z,96329.00
2023-05-17T06:32:26.021Z,96337.00
2023-05-17T06:35:12.012Z,96334.00
2023-05-17T06:37:58.094Z,96340.00
2023-05-17T06:40:43.766Z,96343.00
2023-05-17T06:43:29.557Z,96336.00
2023-05-17T06:46:15.356Z,96344.00
2023-05-17T06:49:03.032Z,96338.00
2023-05-17T06:51:49.077Z,96338.00
2023-05-17T06:54:34.989Z,96333.00
2023-05-17T06:57:21.138Z,96334.00
2023-05-17T07:00:11.176Z,96337.00
2023-05-17T07:02:57.018Z,96344.00
2023-05-17T07:05:43.102Z,96341.00
2023-05-17T07:08:29.373Z,96338.00
2023-05-17T07:11:18.075Z,96346.00
2023-05-17T07:14:03.694Z,96351.00
2023-05-17T07:16:49.916Z,96349.00
2023-05-17T07:19:36.265Z,96340.00
2023-05-17T07:22:22.835Z,96357.00
2023-05-17T07:25:09.417Z,96352.00
2023-05-17T07:27:55.518Z,96350.00
2023-05-17T07:30:41.485Z,96351.00
2023-05-17T07:33:28.284Z,96358.00
2023-05-17T07:36:14.322Z,96351.00
2023-05-17T07:39:00.583Z,96350.00
2023-05-17T07:41:46.237Z,96352.00
2023-05-17T07:44:31.951Z,96347.00
2023-05-17T07:47:17.898Z,96362.00
2023-05-17T07:50:04.903Z,96356.00
2023-05-17T07:52:53.339Z,96371.00
2023-05-17T07:55:39.522Z,96365.00
2023-05-17T07:58:25.509Z,96363.00
2023-05-17T08:01:11.115Z,96362.00
2023-05-17T08:03:57.940Z,96363.00
2023-05-17T08:06:45.991Z,96371.00
2023-05-17T08:09:34.673Z,96372.00
2023-05-17T08:12:20.196Z,96374.00
2023-05-17T08:15:07.854Z,96375.00
2023-05-17T08:17:53.523Z,96372.00
2023-05-17T08:20:40.063Z,96373.00
2023-05-17T08:23:26.288Z,96379.00
2023-05-17T08:26:13.164Z,96377.00
2023-05-17T08:28:58.866Z,96377.00
2023-05-17T08:31:45.658Z,96383.00
2023-05-17T08:34:31.425Z,96381.00
2023-05-17T08:37:19.484Z,96378.00
2023-05-17T08:40:08.171Z,96380.00
2023-05-17T08:42:54.804Z,96377.00
2023-05-17T08:45:41.501Z,96381.00
2023-05-17T08:48:31.291Z,96384.00
2023-05-17T08:51:19.689Z,96373.00
2023-05-17T08:54:08.587Z,96384.00
2023-05-17T08:57:06.892Z,96374.00
2023-05-17T08:59:53.463Z,96380.00
2023-05-17T09:02:42.369Z,96377.00
2023-05-17T09:05:29.691Z,96383.00
2023-05-17T09:08:15.897Z,96380.00
2023-05-17T09:11:02.077Z,96386.00
2023-05-17T09:13:48.177Z,96384.00
2023-05-17T09:16:36.883Z,96387.00
2023-05-17T09:19:24.214Z,96393.00
2023-05-17T09:22:13.994Z,96392.00
2023-05-17T09:25:02.752Z,96396.00
2023-05-17T09:27:48.751Z,96396.00
2023-05-17T09:30:42.090Z,96394.00
2023-05-17T09:33:28.335Z,96405.00
2023-05-17T09:36:23.327Z,96405.00
2023-05-17T09:39:14.954Z,96398.00
2023-05-17T09:42:01.219Z,96399.00
2023-05-17T09:44:56.270Z,96401.00
2023-05-17T09:47:42.735Z,96399.00
2023-05-17T09:50:34.178Z,96395.00
2023-05-17T09:53:27.857Z,96396.00
2023-05-17T09:56:14.642Z,96397.00
2023-05-17T09:59:05.050Z,96400.00
2023-05-17T10:01:53.134Z,96402.00
2023-05-17T10:04:40.709Z,96398.00
2023-05-17T10:07:27.910Z,96394.00
2023-05-17T10:10:15.807Z,96396.00
2023-05-17T10:13:06.382Z,96394.00
2023-05-17T10:15:53.901Z,96395.00
2023-05-17T10:18:41.149Z,96403.00
2023-05-17T10:21:28.648Z,96393.00
2023-05-17T10:24:15.026Z,96393.00
2023-05-17T10:27:01.419Z,96395.00
2023-05-17T10:29:50.362Z,96397.00
2023-05-17T10:32:37.141Z,96390.00
2023-05-17T10:35:24.599Z,96393.00
2023-05-17T10:38:10.096Z,96388.00
2023-05-17T10:40:57.436Z,96394.00
2023-05-17T10:43:44.278Z,96391.00
2023-05-17T10:46:31.684Z,96390.00
2023-05-17T10:49:20.369Z,96388.00
2023-05-17T10:52:16.881Z,96391.00
2023-05-17T10:55:03.084Z,96385.00
2023-05-17T10:58:20.323Z,96391.00
2023-05-17T11:01:08.111Z,96378.00
2023-05-17T11:03:56.029Z,96387.00
2023-05-17T11:06:42.485Z,96375.00
2023-05-17T11:09:32.906Z,96378.00
2023-05-17T11:12:41.974Z,96370.00
2023-05-17T11:15:28.550Z,96374.00
2023-05-17T11:18:29.003Z,96374.00
2023-05-17T11:21:16.465Z,96369.00
2023-05-17T11:24:04.425Z,96366.00
2023-05-17T11:26:50.953Z,96367.00
2023-05-17T11:29:42.326Z,96353.00
2023-05-17T11:32:30.728Z,96358.00
2023-05-17T11:35:19.142Z,96363.00
2023-05-17T11:38:19.351Z,96358.00
2023-05-17T11:44:11.322Z,96351.00
2023-05-17T11:47:11.388Z,96352.00
2023-05-17T11:50:03.485Z,96341.00
2023-05-17T11:52:49.564Z,96349.00
2023-05-17T11:55:40.491Z,96343.00
2023-05-17T11:58:27.297Z,96344.00
2023-05-17T12:01:13.456Z,96341.00
2023-05-17T12:03:59.984Z,96356.00
2023-05-17T12:06:46.355Z,96348.00
2023-05-17T12:09:32.158Z,96341.00
2023-05-17T12:12:18.404Z,96340.00
2023-05-17T12:15:04.487Z,96336.00
2023-05-17T12:17:52.748Z,96336.00
2023-05-17T12:20:39.558Z,96344.00
2023-05-17T12:23:50.393Z,96344.00
2023-05-17T12:26:45.316Z,96347.00
2023-05-17T12:29:31.522Z,96345.00
2023-05-17T12:32:17.428Z,96341.00
2023-05-17T12:35:03.329Z,96342.00
2023-05-17T12:37:49.412Z,96344.00
2023-05-17T12:40:35.615Z,96343.00
2023-05-17T12:43:25.708Z,96346.00
2023-05-17T12:46:20.433Z,96350.00
2023-05-17T12:49:08.714Z,96334.00
2023-05-17T12:51:54.675Z,96335.00
2023-05-17T12:54:41.394Z,96332.00
2023-05-17T12:57:27.448Z,96338.00
2023-05-17T13:00:14.418Z,96346.00
2023-05-17T13:03:00.302Z,96349.00
2023-05-17T13:05:46.577Z,96345.00
2023-05-17T13:08:33.137Z,96341.00
2023-05-17T13:11:18.483Z,96340.00
2023-05-17T13:14:04.821Z,96342.00
2023-05-17T13:16:52.030Z,96332.00
2023-05-17T13:19:38.825Z,96342.00
2023-05-17T13:22:25.301Z,96335.00
2023-05-17T13:25:12.721Z,96340.00
2023-05-17T13:27:59.833Z,96341.00
2023-05-17T13:30:50.030Z,96344.00
2023-05-17T13:33:36.497Z,96350.00
2023-05-17T13:36:22.747Z,96353.00
2023-05-17T13:39:08.504Z,96344.00
2023-05-17T13:41:54.206Z,96340.00
2023-05-17T13:44:40.343Z,96346.00
2023-05-17T13:47:26.339Z,96354.00
2023-05-17T13:50:12.688Z,96356.00
2023-05-17T13:52:59.414Z,96357.00
2023-05-17T13:55:46.936Z,96358.00
2023-05-17T13:58:33.340Z,96357.00
2023-05-17T14:01:19.878Z,96351.00
2023-05-17T14:04:06.211Z,96362.00
2023-05-17T14:06:55.383Z,96352.00
2023-05-17T14:09:43.457Z,96337.00
2023-05-17T14:12:29.305Z,96349.00
2023-05-17T14:15:16.275Z,96353.00
2023-05-17T14:18:02.270Z,96347.00
2023-05-17T14:20:48.473Z,96361.00
2023-05-17T14:23:35.275Z,96361.00
2023-05-17T14:26:21.717Z,96366.00
2023-05-17T14:29:07.644Z,96366.00
2023-05-17T14:31:53.649Z,96349.00
2023-05-17T14:34:40.023Z,96353.00
2023-05-17T14:37:26.330Z,96362.00
2023-05-17T14:40:12.913Z,96357.00
2023-05-17T14:42:58.872Z,96369.00
2023-05-17T14:45:45.099Z,96362.00
2023-05-17T14:48:31.815Z,96369.00
2023-05-17T14:51:19.537Z,96363.00
2023-05-17T14:54:06.434Z,96364.00
2023-05-17T14:56:52.701Z,96371.00
2023-05-17T14:59:39.090Z,96373.00
2023-05-17T15:02:25.165Z,96377.00
2023-05-17T15:05:11.759Z,96371.00
2023-05-17T15:07:57.763Z,96371.00
2023-05-17T15:10:43.499Z,96370.00
2023-05-17T15:13:30.179Z,96372.00
2023-05-17T15:16:16.211Z,96374.00
2023-05-17T15:19:03.683Z,96371.00
2023-05-17T15:21:50.775Z,96382.00
2023-05-17T15:24:37.666Z,96375.00
2023-05-17T15:27:23.796Z,96380.00
2023-05-17T15:30:13.539Z,96377.00
2023-05-17T15:33:00.276Z,96382.00
2023-05-17T15:35:46.290Z,96378.00
2023-05-17T15:38:32.289Z,96382.00
2023-05-17T15:41:21.748Z,96372.00
2023-05-17T15:44:09.133Z,96382.00
2023-05-17T15:46:54.741Z,96383.00
2023-05-17T15:49:41.403Z,96379.00
2023-05-17T15:52:27.853Z,96386.00
2023-05-17T15:55:13.745Z,96387.00
2023-05-17T15:57:59.489Z,96382.00
2023-05-17T16:00:46.472Z,96386.00
2023-05-17T16:03:33.461Z,96385.00
2023-05-17T16:06:19.804Z,96390.00
2023-05-17T16:09:05.790Z,96389.00
2023-05-17T16:11:52.199Z,96393.00
2023-05-17T16:14:40.755Z,96392.00
2023-05-17T16:17:27.225Z,96391.00
2023-05-17T16:20:13.724Z,96395.00
2023-05-17T16:23:01.114Z,96392.00
2023-05-17T16:25:47.254Z,96397.00
2023-05-17T16:28:34.814Z,96398.00
2023-05-17T16:31:21.049Z,96407.00
2023-05-17T16:34:07.695Z,96399.00
2023-05-17T16:36:53.837Z,96394.00
2023-05-17T16:39:39.909Z,96398.00
2023-05-17T16:42:26.043Z,96405.00
2023-05-17T16:45:12.069Z,96403.00
2023-05-17T16:47:57.945Z,96407.00
2023-05-17T16:50:44.810Z,96415.00
2023-05-17T16:53:30.751Z,96415.00
2023-05-17T16:56:16.364Z,96413.00
2023-05-17T16:59:02.268Z,96417.00
2023-05-17T17:01:48.056Z,96414.00
2023-05-17T17:04:34.401Z,96413.00
2023-05-17T17:07:20.937Z,96419.00
2023-05-17T17:10:08.014Z,96416.00
2023-05-17T17:12:53.926Z,96422.00
2023-05-17T17:15:39.746Z,96424.00
2023-05-17T17:18:25.433Z,96425.00
2023-05-17T17:21:11.022Z,96431.00
2023-05-17T17:23:57.440Z,96427.00
2023-05-17T17:26:43.627Z,96428.00
2023-05-17T17:29:29.768Z,96434.00
2023-05-17T17:32:15.744Z,96425.00
2023-05-17T17:35:02.597Z,96422.00
2023-05-17T17:37:49.222Z,96425.00
2023-05-17T17:40:39.548Z,96425.00
2023-05-17T17:43:28.031Z,96433.00
2023-05-17T17:46:13.825Z,96433.00
2023-05-17T17:48:59.609Z,96438.00
2023-05-17T17:51:45.818Z,96440.00
2023-05-17T17:54:32.220Z,96435.00
2023-05-17T17:57:19.425Z,96430.00
2023-05-17T18:00:06.428Z,96439.00
2023-05-17T18:02:52.047Z,96441.00
2023-05-17T18:05:38.198Z,96441.00
2023-05-17T18:08:24.659Z,96451.00
2023-05-17T18:11:10.734Z,96449.00
2023-05-17T18:13:56.707Z,96452.00
2023-05-17T18:16:42.507Z,96451.00
2023-05-17T18:19:28.653Z,96458.00
2023-05-17T18:22:18.981Z,96456.00
2023-05-17T18:25:06.649Z,96461.00
2023-05-17T18:27:52.453Z,96458.00
2023-05-17T18:30:40.231Z,96455.00
2023-05-17T18:33:27.435Z,96462.00
2023-05-17T18:36:14.827Z,96461.00
2023-05-17T18:39:01.101Z,96464.00
2023-05-17T18:41:47.312Z,96461.00
2023-05-17T18:44:34.911Z,96464.00
2023-05-17T18:47:23.520Z,96459.00
2023-05-17T18:50:10.209Z,96466.00
2023-05-17T18:52:57.232Z,96468.00
2023-05-17T18:55:43.278Z,96464.00
2023-05-17T18:58:29.697Z,96466.00
2023-05-17T19:01:15.185Z,96470.00
2023-05-17T19:04:01.362Z,96472.00
2023-05-17T19:06:47.189Z,96477.00
2023-05-17T19:09:34.699Z,96470.00
2023-05-17T19:12:20.994Z,96477.00
2023-05-17T19:15:09.506Z,96479.00
2023-05-17T19:17:55.691Z,96488.00
2023-05-17T19:20:41.504Z,96484.00
2023-05-17T19:23:28.261Z,96488.00
2023-05-17T19:26:14.398Z,96489.00
2023-05-17T19:29:00.157Z,96488.00
2023-05-17T19:31:46.358Z,96498.00
2023-05-17T19:34:32.465Z,96495.00
2023-05-17T19:37:19.067Z,96494.00
2023-05-17T19:40:06.084Z,96489.00
2023-05-17T19:42:51.900Z,96492.00
2023-05-17T19:45:37.648Z,96491.00
2023-05-17T19:48:24.411Z,96485.00
2023-05-17T19:51:11.295Z,96484.00
2023-05-17T19:53:57.174Z,96492.00
2023-05-17T19:56:42.842Z,96484.00
2023-05-17T19:59:28.902Z,96490.00
2023-05-17T20:02:14.555Z,96487.00
2023-05-17T20:05:03.864Z,96484.00
2023-05-17T20:07:50.119Z,96478.00
2023-05-17T20:10:37.495Z,96488.00
2023-05-17T20:13:28.640Z,96486.00
2023-05-17T20:16:15.109Z,96480.00
2023-05-17T20:19:01.369Z,96486.00
2023-05-17T20:21:47.703Z,96489.00
2023-05-17T20:24:34.984Z,96494.00
2023-05-17T20:27:20.717Z,96489.00
2023-05-17T20:30:07.733Z,96486.00
2023-05-17T20:32:53.954Z,96485.00
2023-05-17T20:35:39.976Z,96488.00
2023-05-17T20:38:25.805Z,96493.00
2023-05-17T20:41:13.121Z,96486.00
2023-05-17T20:43:59.106Z,96488.00
2023-05-17T20:46:47.145Z,96491.00
2023-05-17T20:49:32.967Z,96491.00
2023-05-17T20:52:27.729Z,96498.00
2023-05-17T20:55:24.461Z,96493.00
2023-05-17T20:58:10.858Z,96493.00
2023-05-17T21:00:58.385Z,96493.00
2023-05-17T21:03:44.231Z,96491.00
2023-05-17T21:06:32.464Z,96474.00
2023-05-17T21:09:18.989Z,96486.00
2023-05-17T21:12:05.544Z,96487.00
2023-05-17T21:15:03.697Z,96490.00
2023-05-17T21:17:56.742Z,96490.00
2023-05-17T21:20:43.053Z,96487.00
2023-05-17T21:23:28.864Z,96486.00
2023-05-17T21:26:15.925Z,96476.00
2023-05-17T21:29:01.855Z,96480.00
2023-05-17T21:31:47.415Z,96488.00
2023-05-17T21:34:33.369Z,96476.00
2023-05-17T21:37:19.018Z,96469.00
2023-05-17T21:40:05.904Z,96477.00
2023-05-17T21:42:51.710Z,96473.00
2023-05-17T21:45:38.486Z,96471.00
2023-05-17T21:48:24.742Z,96471.00
2023-05-17T21:51:10.498Z,96472.00
2023-05-17T21:53:56.102Z,96470.00
2023-05-17T21:56:41.643Z,96468.00
2023-05-17T21:59:27.257Z,96475.00
2023-05-17T22:02:13.347Z,96472.00
2023-05-17T22:04:59.308Z,96470.00
2023-05-17T22:07:45.178Z,96474.00
2023-05-17T22:10:33.257Z,96473.00
2023-05-17T22:13:19.587Z,96472.00
2023-05-17T22:16:07.125Z,96486.00
2023-05-17T22:18:52.909Z,96477.00
2023-05-17T22:21:39.584Z,96470.00
2023-05-17T22:24:25.389Z,96476.00
2023-05-17T22:27:12.021Z,96464.00
2023-05-17T22:29:58.082Z,96474.00
2023-05-17T22:32:44.203Z,96464.00
2023-05-17T22:35:30.172Z,96475.00
2023-05-17T22:38:16.062Z,96466.00
2023-05-17T22:41:01.849Z,96460.00
2023-05-17T22:43:48.475Z,96460.00
2023-05-17T22:46:34.437Z,96460.00
2023-05-17T22:49:20.482Z,96454.00
2023-05-17T22:52:08.018Z,96455.00
2023-05-17T22:54:53.931Z,96459.00
2023-05-17T22:57:39.565Z,96456.00
2023-05-17T23:00:26.946Z,96451.00
2023-05-17T23:03:13.683Z,96454.00
2023-05-17T23:06:03.144Z,96459.00
2023-05-17T23:08:53.292Z,96448.00
2023-05-17T23:11:41.091Z,96453.00
2023-05-17T23:14:28.379Z,96450.00
2023-05-17T23:17:14.502Z,96449.00
2023-05-17T23:20:13.186Z,96442.00
2023-05-17T23:22:59.687Z,96438.00
2023-05-17T23:25:48.929Z,96438.00
2023-05-17T23:28:36.734Z,96436.00
2023-05-17T23:31:22.650Z,96430.00
2023-05-17T23:34:08.939Z,96434.00
2023-05-17T23:36:54.916Z,96426.00
2023-05-17T23:39:40.365Z,96431.00
2023-05-17T23:42:32.712Z,96427.00
2023-05-17T23:45:18.806Z,96424.00
2023-05-17T23:48:04.573Z,96422.00
2023-05-17T23:50:50.297Z,96424.00
2023-05-17T23:53:38.339Z,96422.00
2023-05-17T23:56:24.098Z,96415.00
2023-05-17T23:59:10.104Z,96414.00
